createdAt,value
2019-03-10T00:01:36.022Z,4.30
2019-03-10T00:04:08.830Z,4.07
2019-03-10T00:06:47.031Z,4.13
2019-03-10T00:09:17.229Z,6.30
2019-03-10T00:11:47.481Z,4.83
2019-03-10T00:14:18.088Z,3.87
2019-03-10T00:16:49.524Z,4.20
2019-03-10T00:19:20.187Z,3.53
2019-03-10T00:21:50.997Z,2.13
2019-03-10T00:24:21.349Z,5.07
2019-03-10T00:26:51.609Z,4.37
2019-03-10T00:29:21.850Z,6.60
2019-03-10T00:31:52.032Z,5.33
2019-03-10T00:34:22.236Z,3.60
2019-03-10T00:36:52.673Z,5.23
2019-03-10T00:39:59.813Z,6.83
2019-03-10T00:43:05.779Z,5.93
2019-03-10T00:46:19.626Z,5.33
2019-03-10T00:49:33.731Z,5.70
2019-03-10T00:52:13.516Z,4.63
2019-03-10T00:54:43.862Z,4.30
2019-03-10T00:57:14.171Z,6.73
2019-03-10T00:59:44.372Z,7.00
2019-03-10T01:02:14.746Z,4.97
2019-03-10T01:04:45.267Z,4.57
2019-03-10T01:07:15.692Z,5.77
2019-03-10T01:09:45.958Z,7.57
2019-03-10T01:12:17.353Z,4.47
2019-03-10T01:14:47.555Z,6.13
2019-03-10T01:17:19.762Z,5.83
2019-03-10T01:19:51.107Z,4.30
2019-03-10T01:22:21.888Z,5.43
2019-03-10T01:24:52.139Z,3.40
2019-03-10T01:27:22.337Z,2.30
2019-03-10T01:29:52.722Z,6.77
2019-03-10T01:33:03.198Z,7.70
2019-03-10T01:35:36.857Z,9.63
2019-03-10T01:38:07.130Z,2.30
2019-03-10T01:40:37.342Z,4.53
2019-03-10T01:43:07.558Z,4.30
2019-03-10T01:45:37.845Z,6.50
2019-03-10T01:48:08.131Z,7.40
2019-03-10T01:50:38.390Z,5.40
2019-03-10T01:53:08.613Z,5.10
2019-03-10T01:55:38.834Z,4.63
2019-03-10T01:58:09.080Z,5.07
2019-03-10T02:00:39.257Z,8.00
2019-03-10T02:03:09.511Z,9.27
2019-03-10T02:05:40.085Z,2.57
2019-03-10T02:08:10.393Z,7.63
2019-03-10T02:10:40.838Z,5.83
2019-03-10T02:13:11.038Z,4.63
2019-03-10T02:15:41.225Z,2.53
2019-03-10T02:18:11.476Z,4.13
2019-03-10T02:20:42.332Z,5.23
2019-03-10T02:23:12.657Z,4.13
2019-03-10T02:25:42.881Z,5.60
2019-03-10T02:28:13.063Z,3.63
2019-03-10T02:30:43.239Z,6.83
2019-03-10T02:33:13.544Z,6.40
2019-03-10T02:35:43.751Z,2.37
2019-03-10T02:38:14.055Z,8.63
2019-03-10T02:40:44.250Z,8.57
2019-03-10T02:43:14.477Z,3.87
2019-03-10T02:45:45.829Z,6.83
2019-03-10T02:48:17.537Z,6.33
2019-03-10T02:50:47.823Z,3.57
2019-03-10T02:53:18.029Z,6.13
2019-03-10T02:55:48.314Z,5.97
2019-03-10T02:58:18.559Z,7.93
2019-03-10T03:00:48.864Z,3.87
2019-03-10T03:03:19.090Z,7.03
2019-03-10T03:05:49.521Z,8.43
2019-03-10T03:08:19.732Z,5.70
2019-03-10T03:10:50.054Z,8.80
2019-03-10T03:13:20.293Z,4.57
2019-03-10T03:15:51.622Z,7.60
2019-03-10T03:18:21.885Z,9.80
2019-03-10T03:20:52.141Z,11.90
2019-03-10T03:23:22.349Z,9.03
2019-03-10T03:25:52.553Z,12.03
2019-03-10T03:28:22.927Z,11.23
2019-03-10T03:30:53.176Z,7.00
2019-03-10T03:33:23.376Z,10.57
2019-03-10T03:36:02.849Z,8.50
2019-03-10T03:38:42.127Z,12.53
2019-03-10T03:41:14.641Z,4.67
2019-03-10T03:43:44.863Z,6.73
2019-03-10T03:46:15.073Z,7.80
2019-03-10T03:48:45.349Z,6.63
2019-03-10T03:51:15.549Z,11.70
2019-03-10T03:53:45.956Z,7.90
2019-03-10T03:56:16.176Z,10.43
2019-03-10T03:58:46.387Z,7.87
2019-03-10T04:01:23.124Z,8.27
2019-03-10T04:03:53.399Z,3.50
2019-03-10T04:06:23.800Z,6.10
2019-03-10T04:08:54.114Z,9.10
2019-03-10T04:11:24.321Z,9.13
2019-03-10T04:13:54.716Z,6.73
2019-03-10T04:16:24.968Z,9.40
2019-03-10T04:18:55.209Z,7.23
2019-03-10T04:21:25.582Z,9.67
2019-03-10T04:23:55.844Z,14.07
2019-03-10T04:26:28.805Z,10.80
2019-03-10T04:28:59.061Z,6.27
2019-03-10T04:31:29.328Z,7.97
2019-03-10T04:34:01.916Z,10.80
2019-03-10T04:36:32.085Z,8.10
2019-03-10T04:39:02.493Z,14.53
2019-03-10T04:41:34.300Z,10.10
2019-03-10T04:44:04.490Z,9.50
2019-03-10T04:46:34.713Z,10.60
2019-03-10T04:49:05.192Z,10.23
2019-03-10T04:51:35.641Z,10.30
2019-03-10T04:54:05.876Z,6.70
2019-03-10T04:56:44.917Z,10.93
2019-03-10T04:59:15.262Z,9.53
2019-03-10T05:01:45.507Z,10.13
2019-03-10T05:04:15.795Z,7.77
2019-03-10T05:06:47.689Z,11.80
2019-03-10T05:09:18.019Z,10.20
2019-03-10T05:11:50.496Z,13.53
2019-03-10T05:14:20.928Z,10.80
2019-03-10T05:16:51.217Z,11.40
2019-03-10T05:19:21.514Z,13.63
2019-03-10T05:21:51.757Z,7.97
2019-03-10T05:24:21.987Z,10.53
2019-03-10T05:26:52.221Z,8.40
2019-03-10T05:29:22.512Z,7.53
2019-03-10T05:31:52.782Z,11.13
2019-03-10T05:34:23.177Z,14.67
2019-03-10T05:36:54.522Z,8.60
2019-03-10T05:39:24.840Z,12.13
2019-03-10T05:41:55.170Z,9.67
2019-03-10T05:44:25.433Z,15.97
2019-03-10T05:46:56.271Z,11.43
2019-03-10T05:49:26.940Z,11.73
2019-03-10T05:51:57.526Z,9.97
2019-03-10T05:54:28.870Z,15.30
2019-03-10T05:56:59.173Z,8.13
2019-03-10T05:59:29.380Z,9.87
2019-03-10T06:01:59.691Z,10.43
2019-03-10T06:04:29.979Z,10.33
2019-03-10T06:07:00.628Z,10.27
2019-03-10T06:09:30.997Z,9.67
2019-03-10T06:12:01.261Z,10.03
2019-03-10T06:14:32.521Z,10.90
2019-03-10T06:17:02.753Z,11.93
2019-03-10T06:19:33.146Z,11.43
2019-03-10T06:22:03.628Z,8.00
2019-03-10T06:24:34.078Z,11.07
2019-03-10T06:27:04.266Z,8.60
2019-03-10T06:29:36.009Z,12.33
2019-03-10T06:32:06.346Z,10.20
2019-03-10T06:34:36.614Z,19.77
2019-03-10T06:37:06.893Z,7.40
2019-03-10T06:39:37.180Z,11.77
2019-03-10T06:42:07.511Z,12.60
2019-03-10T06:44:37.904Z,10.77
2019-03-10T06:47:08.249Z,12.57
2019-03-10T06:49:38.511Z,9.30
2019-03-10T06:52:08.829Z,8.83
2019-03-10T06:54:40.161Z,14.83
2019-03-10T06:57:10.533Z,14.63
2019-03-10T06:59:42.577Z,15.30
2019-03-10T07:02:12.976Z,13.87
2019-03-10T07:04:43.332Z,12.87
2019-03-10T07:07:13.764Z,9.00
2019-03-10T07:09:44.129Z,18.13
2019-03-10T07:12:14.478Z,11.47
2019-03-10T07:14:47.074Z,14.97
2019-03-10T07:17:17.796Z,13.30
2019-03-10T07:19:48.150Z,10.63
2019-03-10T07:22:18.426Z,18.23
2019-03-10T07:24:48.782Z,10.27
2019-03-10T07:27:19.468Z,17.07
2019-03-10T07:29:57.443Z,16.73
2019-03-10T07:32:53.037Z,14.13
2019-03-10T07:35:50.459Z,12.27
2019-03-10T07:38:48.882Z,12.93
2019-03-10T07:41:36.372Z,11.73
2019-03-10T07:44:21.392Z,13.17
2019-03-10T07:47:13.561Z,11.27
2019-03-10T07:49:53.085Z,18.53
2019-03-10T07:52:48.498Z,10.17
2019-03-10T07:55:31.932Z,15.37
2019-03-10T07:58:30.876Z,11.23
2019-03-10T08:01:25.962Z,12.60
2019-03-10T08:04:09.273Z,13.77
2019-03-10T08:07:16.726Z,11.73
2019-03-10T08:10:02.392Z,13.90
2019-03-10T08:12:59.529Z,14.53
2019-03-10T08:16:00.165Z,19.17
2019-03-10T08:18:53.005Z,17.07
2019-03-10T08:22:00.980Z,17.17
2019-03-10T08:24:48.905Z,15.37
2019-03-10T08:27:44.004Z,15.83
2019-03-10T08:30:46.140Z,15.00
2019-03-10T08:33:42.458Z,16.23
2019-03-10T08:36:31.723Z,13.70
2019-03-10T08:39:22.135Z,17.57
2019-03-10T08:42:05.854Z,18.70
2019-03-10T08:44:54.118Z,17.03
2019-03-10T08:47:48.208Z,22.77
2019-03-10T08:50:37.627Z,13.23
2019-03-10T08:53:22.206Z,13.43
2019-03-10T08:55:58.403Z,21.10
2019-03-10T08:58:43.248Z,19.37
2019-03-10T09:01:32.572Z,17.53
2019-03-10T09:04:28.091Z,18.20
2019-03-10T09:07:29.703Z,21.70
2019-03-10T09:10:10.133Z,16.73
2019-03-10T09:12:46.919Z,13.20
2019-03-10T09:15:34.336Z,15.43
2019-03-10T09:18:22.671Z,17.40
2019-03-10T09:21:10.720Z,19.10
2019-03-10T09:24:07.194Z,16.17
2019-03-10T09:26:55.204Z,10.07
2019-03-10T09:29:33.335Z,12.57
2019-03-10T09:32:23.094Z,12.93
2019-03-10T09:35:10.633Z,13.67
2019-03-10T09:37:48.243Z,10.10
2019-03-10T09:40:37.447Z,11.10
2019-03-10T09:43:38.828Z,13.47
2019-03-10T09:46:40.527Z,13.20
2019-03-10T09:49:24.870Z,14.30
2019-03-10T09:52:29.671Z,12.27
2019-03-10T09:55:17.905Z,7.10
2019-03-10T09:58:06.285Z,11.40
2019-03-10T10:00:54.193Z,11.27
2019-03-10T10:03:46.637Z,13.47
2019-03-10T10:06:34.462Z,9.63
2019-03-10T10:09:34.850Z,11.83
2019-03-10T10:12:19.411Z,15.07
2019-03-10T10:15:09.490Z,12.77
2019-03-10T10:18:14.293Z,14.40
2019-03-10T10:20:55.483Z,9.70
2019-03-10T10:23:37.036Z,12.83
2019-03-10T10:26:16.079Z,12.90
2019-03-10T10:29:08.283Z,8.70
2019-03-10T10:32:14.831Z,8.60
2019-03-10T10:35:16.220Z,12.63
2019-03-10T10:38:18.511Z,7.90
2019-03-10T10:41:17.661Z,8.60
2019-03-10T10:44:05.271Z,6.70
2019-03-10T10:46:53.707Z,8.40
2019-03-10T10:49:49.632Z,6.33
2019-03-10T10:52:29.102Z,11.23
2019-03-10T10:55:24.507Z,8.33
2019-03-10T10:58:01.233Z,8.07
2019-03-10T11:00:42.843Z,11.00
2019-03-10T11:03:33.085Z,6.40
2019-03-10T11:06:10.089Z,5.47
2019-03-10T11:09:08.390Z,8.70
2019-03-10T11:12:00.600Z,8.77
2019-03-10T11:14:47.415Z,4.90
2019-03-10T11:17:29.927Z,6.83
2019-03-10T11:20:33.330Z,8.00
2019-03-10T11:23:12.127Z,8.13
2019-03-10T11:25:49.975Z,9.63
2019-03-10T11:28:38.162Z,7.57
2019-03-10T11:31:34.049Z,8.23
2019-03-10T11:34:40.843Z,6.67
2019-03-10T11:37:24.826Z,9.87
2019-03-10T11:40:17.088Z,10.23
2019-03-10T11:43:04.884Z,6.33
2019-03-10T11:45:55.243Z,7.50
2019-03-10T11:49:01.270Z,6.40
2019-03-10T11:51:49.428Z,10.17
2019-03-10T11:54:30.081Z,7.03
2019-03-10T11:57:06.784Z,10.13
2019-03-10T11:59:53.907Z,7.40
2019-03-10T12:02:42.011Z,7.07
2019-03-10T12:05:31.275Z,6.53
2019-03-10T12:08:22.200Z,7.07
2019-03-10T12:10:52.630Z,8.47
2019-03-10T12:13:25.515Z,9.93
2019-03-10T12:15:56.647Z,8.13
2019-03-10T12:18:27.030Z,8.67
2019-03-10T12:21:00.107Z,9.07
2019-03-10T12:23:31.725Z,7.20
2019-03-10T12:26:02.052Z,6.00
2019-03-10T12:28:32.816Z,6.50
2019-03-10T12:31:03.291Z,5.33
2019-03-10T12:33:35.933Z,6.23
2019-03-10T12:36:06.242Z,9.03
2019-03-10T12:38:36.564Z,5.87
2019-03-10T12:41:06.989Z,5.10
2019-03-10T12:43:38.391Z,5.07
2019-03-10T12:46:08.973Z,6.33
2019-03-10T12:48:43.898Z,8.77
2019-03-10T12:51:14.967Z,8.80
2019-03-10T12:53:48.541Z,10.97
2019-03-10T12:56:20.669Z,8.23
2019-03-10T12:58:53.675Z,6.87
2019-03-10T13:01:25.058Z,14.43
2019-03-10T13:03:59.360Z,10.20
2019-03-10T13:06:29.761Z,8.67
2019-03-10T13:09:00.823Z,10.57
2019-03-10T13:11:32.886Z,13.70
2019-03-10T13:14:10.713Z,8.97
2019-03-10T13:16:42.278Z,6.50
2019-03-10T13:19:16.290Z,7.33
2019-03-10T13:21:57.249Z,5.50
2019-03-10T13:24:27.576Z,7.53
2019-03-10T13:26:57.852Z,7.10
2019-03-10T13:29:29.807Z,7.93
2019-03-10T13:32:00.974Z,8.10
2019-03-10T13:34:33.639Z,7.97
2019-03-10T13:37:05.730Z,7.70
2019-03-10T13:39:46.535Z,7.87
2019-03-10T13:42:43.631Z,7.40
2019-03-10T13:45:16.732Z,8.37
2019-03-10T13:47:47.165Z,8.90
2019-03-10T13:50:17.444Z,9.03
2019-03-10T13:52:47.678Z,8.70
2019-03-10T13:55:18.136Z,7.33
2019-03-10T13:57:48.398Z,8.10
2019-03-10T14:00:21.464Z,7.67
2019-03-10T14:02:51.816Z,6.47
2019-03-10T14:05:29.350Z,5.70
2019-03-10T14:07:59.590Z,5.57
2019-03-10T14:10:30.002Z,4.60
2019-03-10T14:13:00.678Z,6.57
2019-03-10T14:15:31.140Z,7.27
2019-03-10T14:18:01.557Z,4.37
2019-03-10T14:20:33.654Z,5.60
2019-03-10T14:23:10.985Z,3.03
2019-03-10T14:25:41.420Z,4.93
2019-03-10T14:28:12.387Z,3.97
2019-03-10T14:30:45.425Z,3.63
2019-03-10T14:33:15.998Z,2.97
2019-03-10T14:35:46.541Z,3.20
2019-03-10T14:38:16.809Z,3.70
2019-03-10T14:40:47.145Z,3.30
2019-03-10T14:43:20.061Z,3.47
2019-03-10T14:45:50.444Z,4.43
2019-03-10T14:48:20.810Z,6.57
2019-03-10T14:50:51.221Z,5.00
2019-03-10T14:53:21.445Z,4.10
2019-03-10T14:55:51.872Z,4.70
2019-03-10T14:58:22.140Z,5.07
2019-03-10T15:00:53.587Z,5.03
2019-03-10T15:03:24.938Z,3.80
2019-03-10T15:05:55.490Z,4.83
2019-03-10T15:08:26.718Z,4.60
2019-03-10T15:10:57.021Z,4.73
2019-03-10T15:13:27.282Z,3.73
2019-03-10T15:15:57.607Z,4.30
2019-03-10T15:18:28.079Z,3.10
2019-03-10T15:20:58.356Z,3.33
2019-03-10T15:23:28.576Z,4.47
2019-03-10T15:25:59.063Z,3.20
2019-03-10T15:28:29.421Z,3.97
2019-03-10T15:30:59.760Z,5.50
2019-03-10T15:33:30.024Z,2.60
2019-03-10T15:36:00.235Z,2.90
2019-03-10T15:38:31.526Z,4.63
2019-03-10T15:41:01.849Z,2.70
2019-03-10T15:43:32.137Z,4.80
2019-03-10T15:46:03.322Z,2.93
2019-03-10T15:48:34.627Z,2.93
2019-03-10T15:51:04.974Z,4.50
2019-03-10T15:53:35.301Z,6.13
2019-03-10T15:56:05.565Z,3.57
2019-03-10T15:58:36.023Z,3.17
2019-03-10T16:01:06.354Z,5.40
2019-03-10T16:03:36.654Z,6.80
2019-03-10T16:06:06.979Z,4.33
2019-03-10T16:08:46.275Z,3.33
2019-03-10T16:11:16.622Z,3.43
2019-03-10T16:13:47.614Z,3.67
2019-03-10T16:16:22.298Z,3.03
2019-03-10T16:18:56.074Z,4.23
2019-03-10T16:21:26.398Z,4.23
2019-03-10T16:23:56.668Z,2.70
2019-03-10T16:26:27.024Z,2.80
2019-03-10T16:28:57.224Z,5.30
2019-03-10T16:31:27.589Z,5.80
2019-03-10T16:33:57.893Z,2.90
2019-03-10T16:36:28.195Z,3.93
2019-03-10T16:38:58.877Z,3.23
2019-03-10T16:41:29.182Z,3.53
2019-03-10T16:43:59.503Z,2.90
2019-03-10T16:46:30.145Z,5.40
2019-03-10T16:49:00.410Z,4.67
2019-03-10T16:51:30.657Z,4.53
2019-03-10T16:54:01.060Z,5.80
2019-03-10T16:56:32.259Z,3.63
2019-03-10T16:59:02.928Z,2.77
2019-03-10T17:01:33.228Z,4.87
2019-03-10T17:04:03.462Z,2.30
2019-03-10T17:06:33.708Z,4.53
2019-03-10T17:09:15.373Z,4.07
2019-03-10T17:11:45.978Z,2.43
2019-03-10T17:14:16.192Z,4.03
2019-03-10T17:16:46.403Z,5.50
2019-03-10T17:19:17.152Z,3.43
2019-03-10T17:21:50.926Z,5.07
2019-03-10T17:24:22.528Z,3.93
2019-03-10T17:26:52.817Z,4.07
2019-03-10T17:29:23.552Z,3.60
2019-03-10T17:31:56.154Z,7.17
2019-03-10T17:34:26.463Z,2.90
2019-03-10T17:36:56.774Z,4.87
2019-03-10T17:39:27.098Z,4.43
2019-03-10T17:41:57.422Z,5.87
2019-03-10T17:44:27.690Z,3.20
2019-03-10T17:46:58.232Z,6.13
2019-03-10T17:49:28.435Z,4.83
2019-03-10T17:51:58.938Z,3.90
2019-03-10T17:54:29.234Z,5.03
2019-03-10T17:56:59.549Z,6.73
2019-03-10T17:59:29.861Z,4.77
2019-03-10T18:02:09.002Z,4.93
2019-03-10T18:04:33.962Z,6.83
2019-03-10T18:07:05.275Z,5.67
2019-03-10T18:09:35.500Z,6.67
2019-03-10T18:12:05.911Z,9.60
2019-03-10T18:14:36.479Z,9.80
2019-03-10T18:17:06.813Z,10.07
2019-03-10T18:19:37.508Z,6.40
2019-03-10T18:22:07.868Z,7.70
2019-03-10T18:24:38.232Z,6.77
2019-03-10T18:27:08.604Z,6.00
2019-03-10T18:29:38.830Z,7.70
2019-03-10T18:32:17.568Z,2.63
2019-03-10T18:34:51.413Z,5.00
2019-03-10T18:37:36.134Z,7.37
2019-03-10T18:40:11.724Z,5.30
2019-03-10T18:42:46.342Z,5.00
2019-03-10T18:45:17.683Z,6.40
2019-03-10T18:47:49.157Z,4.70
2019-03-10T18:50:19.566Z,8.50
2019-03-10T18:52:50.791Z,4.37
2019-03-10T18:55:23.013Z,7.83
2019-03-10T18:57:53.327Z,4.77
2019-03-10T19:00:33.914Z,3.40
2019-03-10T19:03:06.220Z,4.73
2019-03-10T19:05:36.498Z,5.83
2019-03-10T19:08:06.877Z,3.70
2019-03-10T19:10:39.017Z,4.83
2019-03-10T19:13:10.548Z,2.60
2019-03-10T19:15:41.761Z,4.70
2019-03-10T19:18:12.353Z,2.93
2019-03-10T19:20:44.695Z,2.40
2019-03-10T19:23:15.539Z,3.70
2019-03-10T19:25:48.190Z,3.60
2019-03-10T19:28:37.306Z,1.87
2019-03-10T19:31:11.670Z,1.73
2019-03-10T19:33:42.204Z,1.27
2019-03-10T19:36:14.951Z,2.73
2019-03-10T19:38:45.447Z,3.50
2019-03-10T19:41:15.832Z,2.93
2019-03-10T19:43:48.076Z,3.33
2019-03-10T19:46:18.461Z,2.27
2019-03-10T19:48:50.401Z,2.23
2019-03-10T19:51:20.891Z,2.17
2019-03-10T19:53:54.385Z,1.80
2019-03-10T19:56:24.544Z,1.63
2019-03-10T19:58:55.069Z,4.60
2019-03-10T20:01:49.241Z,2.77
2019-03-10T20:04:26.324Z,1.97
2019-03-10T20:06:56.820Z,2.13
2019-03-10T20:09:27.466Z,2.17
2019-03-10T20:11:57.889Z,1.50
2019-03-10T20:14:29.299Z,3.40
2019-03-10T20:16:59.833Z,1.57
2019-03-10T20:19:33.266Z,2.33
2019-03-10T20:22:05.582Z,1.17
2019-03-10T20:24:36.181Z,2.00
2019-03-10T20:27:06.423Z,3.93
2019-03-10T20:29:38.068Z,1.20
2019-03-10T20:32:13.858Z,2.37
2019-03-10T20:34:41.998Z,1.47
2019-03-10T20:37:12.289Z,1.53
2019-03-10T20:39:42.626Z,4.93
2019-03-10T20:42:13.500Z,2.73
2019-03-10T20:44:43.828Z,2.33
2019-03-10T20:47:14.204Z,2.70
2019-03-10T20:49:46.790Z,4.83
2019-03-10T20:52:17.455Z,0.90
2019-03-10T20:54:48.065Z,6.73
2019-03-10T20:57:26.359Z,2.33
2019-03-10T21:00:00.742Z,1.93
2019-03-10T21:02:31.939Z,3.23
2019-03-10T21:05:02.230Z,2.93
2019-03-10T21:07:33.535Z,5.30
2019-03-10T21:10:04.004Z,1.40
2019-03-10T21:12:40.568Z,1.83
2019-03-10T21:15:07.906Z,1.27
2019-03-10T21:17:38.171Z,1.47
2019-03-10T21:20:12.087Z,1.37
2019-03-10T21:22:42.879Z,1.53
2019-03-10T21:25:15.037Z,2.57
2019-03-10T21:27:45.381Z,1.10
2019-03-10T21:30:18.078Z,1.10
2019-03-10T21:32:48.580Z,1.20
2019-03-10T21:35:18.910Z,1.30
2019-03-10T21:37:49.136Z,1.40
2019-03-10T21:40:21.298Z,1.60
2019-03-10T21:42:51.618Z,2.20
2019-03-10T21:45:22.166Z,1.70
2019-03-10T21:47:52.380Z,1.20
2019-03-10T21:50:22.602Z,1.70
2019-03-10T21:52:52.894Z,1.60
2019-03-10T21:55:23.151Z,1.83
2019-03-10T21:57:53.375Z,1.77
2019-03-10T22:00:23.819Z,1.60
2019-03-10T22:02:54.127Z,1.90
2019-03-10T22:05:24.404Z,1.80
2019-03-10T22:07:54.594Z,1.30
2019-03-10T22:10:27.860Z,2.03
2019-03-10T22:12:56.694Z,1.50
2019-03-10T22:15:26.921Z,1.50
2019-03-10T22:17:57.329Z,1.73
2019-03-10T22:20:27.571Z,1.60
2019-03-10T22:22:58.118Z,1.57
2019-03-10T22:25:28.611Z,1.63
2019-03-10T22:27:58.808Z,1.77
2019-03-10T22:30:29.033Z,2.00
2019-03-10T22:32:59.223Z,2.20
2019-03-10T22:35:29.430Z,2.30
2019-03-10T22:37:59.793Z,2.20
2019-03-10T22:40:30.026Z,2.30
2019-03-10T22:43:00.334Z,2.83
2019-03-10T22:45:30.565Z,2.13
2019-03-10T22:48:00.767Z,2.30
2019-03-10T22:50:30.982Z,2.60
2019-03-10T22:53:01.238Z,2.20
2019-03-10T22:55:31.610Z,2.40
2019-03-10T22:58:01.895Z,2.40
2019-03-10T23:00:44.772Z,2.77
2019-03-10T23:03:16.612Z,2.50
2019-03-10T23:05:46.967Z,2.60
2019-03-10T23:08:17.251Z,2.90
2019-03-10T23:10:47.485Z,2.83
2019-03-10T23:13:18.777Z,2.50
2019-03-10T23:15:49.029Z,3.07
2019-03-10T23:18:19.236Z,3.37
2019-03-10T23:20:49.480Z,2.93
2019-03-10T23:23:19.886Z,3.30
2019-03-10T23:25:50.189Z,2.90
2019-03-10T23:28:20.476Z,4.00
2019-03-10T23:30:50.875Z,3.13
2019-03-10T23:33:21.078Z,4.03
2019-03-10T23:35:51.296Z,3.50
2019-03-10T23:38:21.613Z,3.73
2019-03-10T23:40:51.873Z,3.03
2019-03-10T23:43:23.797Z,4.00
2019-03-10T23:45:55.254Z,4.40
2019-03-10T23:48:25.453Z,4.87
2019-03-10T23:50:55.626Z,8.40
2019-03-10T23:53:25.856Z,6.23
2019-03-10T23:55:56.122Z,3.87
2019-03-10T23:58:26.333Z,6.33
